createdAt,value
2018-09-30T06:45:11.676Z,99.90
2018-09-30T06:48:20.845Z,99.90
2018-09-30T06:51:30.279Z,99.90
2018-09-30T06:54:39.422Z,99.90
2018-09-30T06:57:48.683Z,99.90
2018-09-30T07:00:58.087Z,99.90
2018-09-30T07:04:07.335Z,99.90
2018-09-30T07:07:17.092Z,99.90
2018-09-30T07:10:26.335Z,99.90
2018-09-30T07:13:35.591Z,99.90
2018-09-30T07:16:44.961Z,99.90
2018-09-30T07:19:54.039Z,99.90
2018-09-30T07:23:03.386Z,99.90
2018-09-30T07:26:19.084Z,99.90
2018-09-30T07:29:28.287Z,99.90
2018-09-30T07:32:37.643Z,99.90
2018-09-30T07:35:46.899Z,99.90
2018-09-30T07:38:56.246Z,99.90
2018-09-30T07:42:05.457Z,99.90
2018-09-30T07:45:14.743Z,99.90
2018-09-30T07:48:23.879Z,99.90
2018-09-30T07:51:33.325Z,99.70
2018-09-30T07:54:42.749Z,99.10
2018-09-30T07:57:51.920Z,98.60
2018-09-30T08:01:01.271Z,99.10
2018-09-30T08:04:10.549Z,99.20
2018-09-30T08:07:19.931Z,98.70
2018-09-30T08:10:29.274Z,97.60
2018-09-30T08:13:38.343Z,97.50
2018-09-30T08:16:47.524Z,98.00
2018-09-30T08:19:56.744Z,97.80
2018-09-30T08:23:05.879Z,97.40
2018-09-30T08:26:15.039Z,97.40
2018-09-30T08:29:24.103Z,97.40
2018-09-30T08:32:33.551Z,97.00
2018-09-30T08:35:45.854Z,96.30
2018-09-30T08:38:54.990Z,95.90
2018-09-30T08:42:04.415Z,95.90
2018-09-30T08:45:13.615Z,95.20
2018-09-30T08:48:22.945Z,95.30
2018-09-30T08:51:32.486Z,95.00
2018-09-30T08:54:41.823Z,95.00
2018-09-30T08:57:51.127Z,94.30
2018-09-30T09:01:00.410Z,94.00
2018-09-30T09:04:09.590Z,94.10
2018-09-30T09:07:18.796Z,94.10
2018-09-30T09:10:28.089Z,93.90
2018-09-30T09:13:37.332Z,94.00
2018-09-30T09:16:46.480Z,93.90
2018-09-30T09:19:56.593Z,93.80
2018-09-30T09:23:06.003Z,94.60
2018-09-30T09:26:15.288Z,94.70
2018-09-30T09:29:24.427Z,94.40
2018-09-30T09:32:37.595Z,94.40
2018-09-30T09:35:46.795Z,94.20
2018-09-30T09:38:55.998Z,94.30
2018-09-30T09:42:05.246Z,94.50
2018-09-30T09:45:14.459Z,94.10
2018-09-30T09:48:23.710Z,93.90
2018-09-30T09:51:33.003Z,93.90
2018-09-30T09:54:42.390Z,93.80
2018-09-30T09:57:51.707Z,93.40
2018-09-30T10:01:04.923Z,93.90
2018-09-30T10:05:11.392Z,93.40
2018-09-30T10:08:20.672Z,93.80
2018-09-30T10:11:30.045Z,93.10
2018-09-30T10:14:39.283Z,92.80
2018-09-30T10:17:48.598Z,92.90
2018-09-30T10:20:57.743Z,92.70
2018-09-30T10:24:07.941Z,92.30
2018-09-30T10:27:17.224Z,92.20
2018-09-30T10:30:26.561Z,92.20
2018-09-30T10:33:35.988Z,92.40
2018-09-30T10:36:45.298Z,92.30
2018-09-30T10:39:54.538Z,92.40
2018-09-30T10:43:03.856Z,92.40
2018-09-30T10:46:13.212Z,92.80
2018-09-30T10:49:22.600Z,92.70
2018-09-30T10:52:31.923Z,91.90
2018-09-30T10:55:41.263Z,92.60
2018-09-30T10:58:50.682Z,92.30
2018-09-30T11:01:59.859Z,92.20
2018-09-30T11:05:09.326Z,91.80
2018-09-30T11:08:18.716Z,92.30
2018-09-30T11:11:28.006Z,91.40
2018-09-30T11:14:37.229Z,91.60
2018-09-30T11:17:46.724Z,91.50
2018-09-30T11:20:55.974Z,91.20
2018-09-30T11:24:05.599Z,91.00
2018-09-30T11:27:14.691Z,90.80
2018-09-30T11:30:24.195Z,90.60
2018-09-30T11:33:33.355Z,91.40
2018-09-30T11:36:42.585Z,90.80
2018-09-30T11:39:52.206Z,90.70
2018-09-30T11:43:01.590Z,90.50
2018-09-30T11:46:10.803Z,90.50
2018-09-30T11:49:20.840Z,88.80
2018-09-30T11:52:30.197Z,88.50
2018-09-30T11:55:39.391Z,89.30
2018-09-30T11:58:48.758Z,90.00
2018-09-30T12:01:58.180Z,89.20
2018-09-30T12:05:07.479Z,89.40
2018-09-30T12:08:16.609Z,89.10
2018-09-30T12:11:25.795Z,87.40
2018-09-30T12:14:35.198Z,87.10
2018-09-30T12:17:44.520Z,87.50
2018-09-30T12:20:53.949Z,87.00
2018-09-30T12:24:03.207Z,87.10
2018-09-30T12:27:12.578Z,86.70
2018-09-30T12:30:22.089Z,86.70
2018-09-30T12:33:31.328Z,86.80
2018-09-30T12:36:40.560Z,86.90
2018-09-30T12:39:49.839Z,87.40
2018-09-30T12:42:59.109Z,87.10
2018-09-30T12:46:08.693Z,87.20
2018-09-30T12:49:18.227Z,86.60
2018-09-30T12:52:27.606Z,86.30
2018-09-30T12:55:36.809Z,86.30
2018-09-30T12:58:46.043Z,86.20
2018-09-30T13:01:55.615Z,85.70
2018-09-30T13:05:05.121Z,86.00
2018-09-30T13:08:14.402Z,84.90
2018-09-30T13:11:23.568Z,85.30
2018-09-30T13:14:32.799Z,85.20
2018-09-30T13:17:42.026Z,84.90
2018-09-30T13:20:51.372Z,84.80
2018-09-30T13:24:20.746Z,84.80
2018-09-30T13:27:30.065Z,84.90
2018-09-30T13:30:39.338Z,84.80
2018-09-30T13:33:48.566Z,84.60
2018-09-30T13:36:57.807Z,83.80
2018-09-30T13:40:07.258Z,83.80
2018-09-30T13:43:16.353Z,84.70
2018-09-30T13:46:25.759Z,84.90
2018-09-30T13:49:35.180Z,84.00
2018-09-30T13:52:44.467Z,84.80
2018-09-30T13:55:53.709Z,84.80
2018-09-30T13:59:03.109Z,84.50
2018-09-30T14:02:12.518Z,83.80
2018-09-30T14:05:21.950Z,83.50
2018-09-30T14:08:31.195Z,84.30
2018-09-30T14:11:40.492Z,83.40
2018-09-30T14:14:49.789Z,83.90
2018-09-30T14:17:58.983Z,85.40
2018-09-30T14:21:08.201Z,84.30
2018-09-30T14:24:17.614Z,83.40
2018-09-30T14:27:26.990Z,84.30
2018-09-30T14:30:36.045Z,84.10
2018-09-30T14:33:45.548Z,83.60
2018-09-30T14:36:55.011Z,84.70
2018-09-30T14:40:04.451Z,83.20
2018-09-30T14:43:13.586Z,83.80
2018-09-30T14:46:22.863Z,83.60
2018-09-30T14:49:32.206Z,83.90
2018-09-30T14:52:41.451Z,83.60
2018-09-30T14:55:50.758Z,80.70
2018-09-30T14:58:59.938Z,81.40
2018-09-30T15:02:09.119Z,81.20
2018-09-30T15:05:18.452Z,81.10
2018-09-30T15:08:27.787Z,80.80
2018-09-30T15:11:37.303Z,80.70
2018-09-30T15:14:46.459Z,80.80
2018-09-30T15:17:55.631Z,80.70
2018-09-30T15:21:04.841Z,80.20
2018-09-30T15:24:14.020Z,80.80
2018-09-30T15:27:23.259Z,80.80
2018-09-30T15:30:32.615Z,82.30
2018-09-30T15:33:41.783Z,81.80
2018-09-30T15:36:51.226Z,83.20
2018-09-30T15:40:00.454Z,84.20
2018-09-30T15:43:09.704Z,85.70
2018-09-30T15:46:18.911Z,85.30
2018-09-30T15:49:28.218Z,85.50
2018-09-30T15:52:37.652Z,86.80
2018-09-30T15:55:47.011Z,85.20
2018-09-30T15:58:56.118Z,86.00
2018-09-30T16:02:05.462Z,86.50
2018-09-30T16:05:14.694Z,87.20
2018-09-30T16:08:24.015Z,87.80
2018-09-30T16:11:33.194Z,87.50
2018-09-30T16:14:42.654Z,88.10
2018-09-30T16:17:52.066Z,90.00
2018-09-30T16:21:01.314Z,88.80
2018-09-30T16:24:10.628Z,89.40
2018-09-30T16:27:19.883Z,90.10
2018-09-30T16:30:29.235Z,91.10
2018-09-30T16:33:38.643Z,91.00
2018-09-30T16:36:47.904Z,91.00
2018-09-30T16:39:57.176Z,92.30
2018-09-30T16:43:06.290Z,91.60
2018-09-30T16:46:15.755Z,92.00
2018-09-30T16:49:25.034Z,92.20
2018-09-30T16:52:34.415Z,92.60
2018-09-30T16:55:43.603Z,92.60
2018-09-30T16:58:52.875Z,93.10
2018-09-30T17:02:02.009Z,93.50
2018-09-30T17:05:11.281Z,93.30
2018-09-30T17:08:20.681Z,93.90
2018-09-30T17:11:29.851Z,94.00
2018-09-30T17:14:39.232Z,94.20
2018-09-30T17:17:48.537Z,94.30
2018-09-30T17:20:57.791Z,94.70
2018-09-30T17:24:07.172Z,94.70
2018-09-30T17:27:16.462Z,94.60
2018-09-30T17:30:25.831Z,94.90
2018-09-30T17:33:35.016Z,94.90
2018-09-30T17:36:44.256Z,95.10
2018-09-30T17:39:53.804Z,95.10
2018-09-30T17:43:02.955Z,95.30
2018-09-30T17:46:12.148Z,95.10
2018-09-30T17:49:21.516Z,96.10
2018-09-30T17:52:30.923Z,96.60
2018-09-30T17:55:40.252Z,96.30
2018-09-30T17:58:49.508Z,95.70
2018-09-30T18:01:58.959Z,95.40
2018-09-30T18:05:08.206Z,95.30
2018-09-30T18:08:17.574Z,95.80
2018-09-30T18:11:26.727Z,95.90
2018-09-30T18:14:35.970Z,96.40
2018-09-30T18:17:45.380Z,96.70
2018-09-30T18:20:54.880Z,97.20
2018-09-30T18:24:04.531Z,97.60
2018-09-30T18:27:13.689Z,98.00
2018-09-30T18:30:23.380Z,98.60
2018-09-30T18:33:32.728Z,98.50
2018-09-30T18:36:42.111Z,98.70
2018-09-30T18:39:51.493Z,99.60
2018-09-30T18:43:00.507Z,99.70
2018-09-30T18:46:09.739Z,99.60
2018-09-30T18:49:19.015Z,99.60
2018-09-30T18:52:28.471Z,99.40
2018-09-30T18:55:37.577Z,99.90
2018-09-30T18:58:46.862Z,99.90
2018-09-30T19:01:56.183Z,99.90
2018-09-30T19:05:05.519Z,99.90
2018-09-30T19:08:14.842Z,99.90
2018-09-30T19:11:24.169Z,99.90
2018-09-30T19:14:33.555Z,99.90
2018-09-30T19:17:42.957Z,99.90
2018-09-30T19:20:52.355Z,99.90
2018-09-30T19:24:01.649Z,99.90
2018-09-30T19:27:10.891Z,99.90
2018-09-30T19:30:20.107Z,99.90
2018-09-30T19:33:29.821Z,99.90
2018-09-30T19:36:38.933Z,99.90
2018-09-30T19:39:48.261Z,99.90
2018-09-30T19:42:57.410Z,99.90
2018-09-30T19:46:07.057Z,99.90
2018-09-30T19:49:16.360Z,99.90
2018-09-30T19:52:25.683Z,99.90
2018-09-30T19:55:35.036Z,99.90
2018-09-30T19:58:44.404Z,99.90
2018-09-30T20:01:53.687Z,99.90
2018-09-30T20:05:02.922Z,99.90
2018-09-30T20:08:12.251Z,99.90
2018-09-30T20:11:21.534Z,99.90
2018-09-30T20:14:30.789Z,99.90
2018-09-30T20:17:39.958Z,99.90
2018-09-30T20:20:49.464Z,99.90
2018-09-30T20:23:58.871Z,99.90
2018-09-30T20:27:08.317Z,99.90
2018-09-30T20:30:17.626Z,99.90
2018-09-30T20:33:27.101Z,99.90
2018-09-30T20:36:36.740Z,99.90
2018-09-30T20:39:46.116Z,99.90
2018-09-30T20:42:55.906Z,99.90
2018-09-30T20:46:05.258Z,99.90
2018-09-30T20:49:14.592Z,99.90
2018-09-30T20:52:24.138Z,99.90
2018-09-30T20:55:34.084Z,99.90
2018-09-30T20:58:43.420Z,99.90
2018-09-30T21:01:52.816Z,99.90
2018-09-30T21:05:11.925Z,99.90
2018-09-30T21:08:21.031Z,99.90
2018-09-30T21:11:30.218Z,99.90
2018-09-30T21:14:39.465Z,99.90
2018-09-30T21:17:48.690Z,99.90
2018-09-30T21:20:58.240Z,99.90
2018-09-30T21:24:07.520Z,99.90
2018-09-30T21:27:16.639Z,99.90
2018-09-30T21:30:26.024Z,99.90
2018-09-30T21:33:35.382Z,99.90
2018-09-30T21:36:44.458Z,99.90
2018-09-30T21:39:53.631Z,99.90
2018-09-30T21:43:02.924Z,99.90
2018-09-30T21:46:12.086Z,99.90
2018-09-30T21:49:21.239Z,99.90
2018-09-30T21:52:30.527Z,99.90
2018-09-30T21:55:40.093Z,99.90
2018-09-30T21:58:49.262Z,99.90
2018-09-30T22:01:58.435Z,99.90
2018-09-30T22:05:07.604Z,99.90
2018-09-30T22:08:16.834Z,99.90
2018-09-30T22:11:26.661Z,99.90
2018-09-30T22:14:35.979Z,99.90
2018-09-30T22:17:45.344Z,99.90
2018-09-30T22:20:54.766Z,99.90
2018-09-30T22:24:04.151Z,99.90
2018-09-30T22:27:13.327Z,99.90
2018-09-30T22:30:22.784Z,99.90
2018-09-30T22:33:32.208Z,99.90
2018-09-30T22:36:42.593Z,99.90
2018-09-30T22:39:51.800Z,99.90
2018-09-30T22:43:01.051Z,99.90
2018-09-30T22:46:10.750Z,99.90
2018-09-30T22:49:19.895Z,99.90
2018-09-30T22:52:29.222Z,99.90
2018-09-30T22:55:38.467Z,99.90
2018-09-30T22:58:47.736Z,99.90
2018-09-30T23:01:57.049Z,99.90
2018-09-30T23:05:07.561Z,99.90
2018-09-30T23:08:16.897Z,99.90
2018-09-30T23:11:26.036Z,99.90
2018-09-30T23:14:35.234Z,99.90
2018-09-30T23:17:44.509Z,99.90
2018-09-30T23:20:54.004Z,99.90
2018-09-30T23:24:03.163Z,99.90
2018-09-30T23:27:12.783Z,99.90
2018-09-30T23:30:21.952Z,99.90
2018-09-30T23:33:31.161Z,99.90
2018-09-30T23:36:40.540Z,99.90
2018-09-30T23:39:50.174Z,99.90
2018-09-30T23:42:59.301Z,99.90
2018-09-30T23:46:08.730Z,99.90
2018-09-30T23:49:18.138Z,99.90
2018-09-30T23:52:27.363Z,99.90
2018-09-30T23:55:36.813Z,99.90
2018-09-30T23:58:46.142Z,99.90
